Time,TemperatureF,DewpointF,PressureIn,WindDirection,WindDirectionDegrees,WindSpeedMPH,WindSpeedGustMPH,Humidity,HourlyPrecipIn,Conditions,Clouds,dailyrainin,SoftwareType,DateUTC
2013-11-06 00:00:00,76.1,72.3,29.86,SW,228,0.0,4.0,88,0.00,,,0.00,VWS V14.01,2013-11-06 04:00:00,
2013-11-06 00:30:00,75.7,72.2,29.86,WSW,237,1.0,4.0,89,0.00,,,0.00,VWS V14.01,2013-11-06 04:30:00,
2013-11-06 01:00:00,75.8,72.7,29.85,WSW,237,0.0,3.0,90,0.00,,,0.00,VWS V14.01,2013-11-06 05:00:00,
2013-11-06 01:30:00,74.9,72.1,29.84,SSW,209,2.0,5.0,91,0.00,,,0.00,VWS V14.01,2013-11-06 05:30:00,
2013-11-06 02:00:00,74.3,71.5,29.84,SSW,209,0.0,3.0,91,0.00,,,0.00,VWS V14.01,2013-11-06 06:00:00,
2013-11-06 02:30:00,74.3,71.5,29.82,SSW,209,0.0,0.0,91,0.00,,,0.00,VWS V14.01,2013-11-06 06:30:00,
2013-11-06 03:00:00,74.4,71.6,29.83,SSW,209,0.0,2.0,91,0.00,,,0.00,VWS V14.01,2013-11-06 07:00:00,
2013-11-06 03:30:00,74.4,71.6,29.83,SSW,209,2.0,2.0,91,0.00,,,0.00,VWS V14.01,2013-11-06 07:30:00,
2013-11-06 04:00:00,74.4,71.6,29.82,SSW,209,0.0,2.0,91,0.00,,,0.00,VWS V14.01,2013-11-06 08:00:00,
2013-11-06 04:30:00,73.7,70.9,29.81,SSW,199,1.0,4.0,91,0.00,,,0.00,VWS V14.01,2013-11-06 08:30:00,
2013-11-06 05:00:00,73.6,71.1,29.80,SW,221,3.0,5.0,92,0.00,,,0.00,VWS V14.01,2013-11-06 09:00:00,
2013-11-06 05:30:00,73.6,71.1,29.81,SW,215,0.0,4.0,92,0.00,,,0.00,VWS V14.01,2013-11-06 09:30:00,
2013-11-06 06:00:00,73.8,71.3,29.82,SW,220,1.0,3.0,92,0.00,,,0.00,VWS V14.01,2013-11-06 10:00:00,
2013-11-06 06:30:00,74.0,71.5,29.83,West,264,0.0,4.0,92,0.00,,,0.00,VWS V14.01,2013-11-06 10:30:00,
2013-11-06 07:00:00,74.6,72.1,29.83,West,264,0.0,2.0,92,0.00,,,0.00,VWS V14.01,2013-11-06 11:00:00,
2013-11-06 07:30:00,75.5,72.7,29.85,West,259,0.0,3.0,91,0.00,,,0.00,VWS V14.01,2013-11-06 11:30:00,
2013-11-06 08:00:00,77.2,73.7,29.86,SW,225,2.0,4.0,89,0.00,,,0.00,VWS V14.01,2013-11-06 12:00:00,
2013-11-06 08:30:00,79.8,74.9,29.86,SW,225,0.0,3.0,85,0.00,,,0.00,VWS V14.01,2013-11-06 12:30:00,
2013-11-06 09:00:00,81.9,75.9,29.88,West,280,0.0,3.0,82,0.00,,,0.00,VWS V14.01,2013-11-06 13:00:00,
2013-11-06 09:30:00,83.0,75.8,29.90,North,360,1.0,4.0,79,0.00,,,0.00,VWS V14.01,2013-11-06 13:30:00,
2013-11-06 10:00:00,83.0,76.2,29.90,NE,51,0.0,5.0,80,0.00,,,0.00,VWS V14.01,2013-11-06 14:00:00,
2013-11-06 10:30:00,83.2,76.0,29.89,NE,52,1.0,5.0,79,0.00,,,0.00,VWS V14.01,2013-11-06 14:30:00,
2013-11-06 11:00:00,84.1,76.5,29.87,East,99,2.0,7.0,78,0.00,,,0.00,VWS V14.01,2013-11-06 15:00:00,
2013-11-06 11:30:00,84.7,77.1,29.87,ENE,70,4.0,9.0,78,0.00,,,0.00,VWS V14.01,2013-11-06 15:30:00,
2013-11-06 12:00:00,85.0,77.4,29.86,SE,127,0.0,9.0,78,0.00,,,0.00,VWS V14.01,2013-11-06 16:00:00,
2013-11-06 12:30:00,85.1,77.5,29.85,East,93,3.0,8.0,78,0.00,,,0.00,VWS V14.01,2013-11-06 16:30:00,
2013-11-06 13:00:00,84.8,76.4,29.84,East,83,2.0,8.0,76,0.00,,,0.00,VWS V14.01,2013-11-06 17:00:00,
2013-11-06 13:30:00,84.4,76.0,29.83,WSW,242,2.0,8.0,76,0.00,,,0.00,VWS V14.01,2013-11-06 17:30:00,
2013-11-06 14:00:00,84.1,74.5,29.82,NE,55,3.0,5.0,73,0.00,,,0.00,VWS V14.01,2013-11-06 18:00:00,
2013-11-06 14:30:00,85.7,74.8,29.82,SE,138,2.0,8.0,70,0.00,,,0.00,VWS V14.01,2013-11-06 18:30:00,
2013-11-06 15:00:00,84.0,75.2,29.82,ESE,120,2.0,8.0,75,0.00,,,0.00,VWS V14.01,2013-11-06 19:00:00,
2013-11-06 15:30:00,85.3,74.8,29.80,East,96,5.0,8.0,71,0.00,,,0.00,VWS V14.01,2013-11-06 19:30:00,
2013-11-06 16:00:00,84.8,75.2,29.81,SE,126,1.0,10.0,73,0.00,,,0.00,VWS V14.01,2013-11-06 20:00:00,
2013-11-06 16:30:00,84.4,76.0,29.82,East,94,3.0,9.0,76,0.00,,,0.00,VWS V14.01,2013-11-06 20:30:00,
2013-11-06 17:00:00,82.7,75.5,29.82,East,93,2.0,8.0,79,0.00,,,0.00,VWS V14.01,2013-11-06 21:00:00,
2013-11-06 17:30:00,81.8,75.4,29.83,ESE,111,3.0,8.0,81,0.00,,,0.00,VWS V14.01,2013-11-06 21:30:00,